Terminal Aerodrome Forecast
Issued by NWS Billings, MT

Home | Current Version | Previous Version | Text Only | Print | Product List | Glossary On
Versions: 1 2 3 4 5 6 7 8 9 10 11 12 13 14 15 16 17 18 19 20 21 22 23 24 25 26 27 28 29 30 31 32 33 34 35 36
387
FTUS45 KBYZ 230310 AAA
TAFBIL
TAF AMD
KBIL 230310Z 2303/2324 VRB06KT P6SM OVC100
     FM231200 VRB05KT 6SM BR SCT004 BKN050 OVC100
     FM231400 VRB05KT 2SM BR VCSH BKN004 BKN025 OVC050
     FM232100 02008KT 3SM -SN BR SCT004 OVC007=

USA.gov is the U.S. government's official web portal to all federal, state and local government web resources and services.